Time;durP1;ratioP1;P1;durP2;ratioP2;P2;SDS_P1;SDS_P2;PMS_P1;PMS_P2;Temp;Humidity;BMP_temperature;BMP_pressure;BME280_temperature;BME280_humidity;BME280_pressure;Samples;Min_cycle;Max_cycle;Signal;HPM_P1;HPM_P2
2023/09/26 00:02:42;;;;;;;3.75;1.50;;;19.20;56.30;;;;;;6238847;28;20037;-76
2023/09/26 00:05:42;;;;;;;5.80;2.47;;;19.10;56.50;;;;;;6220920;28;20030;-75
2023/09/26 00:08:43;;;;;;;6.03;2.33;;;19.10;56.60;;;;;;6220352;28;20041;-76
2023/09/26 00:11:44;;;;;;;6.80;2.35;;;19.10;56.90;;;;;;6239649;28;20346;-75
2023/09/26 00:14:45;;;;;;;10.02;2.17;;;19.00;57.10;;;;;;6243284;28;20035;-75
2023/09/26 00:17:46;;;;;;;5.43;2.47;;;18.90;57.30;;;;;;6243290;28;20070;-75
2023/09/26 00:20:47;;;;;;;5.72;2.17;;;18.90;57.40;;;;;;6225649;28;20415;-77
2023/09/26 00:23:48;;;;;;;6.43;2.13;;;18.80;57.40;;;;;;6225330;28;20560;-76
2023/09/26 00:26:48;;;;;;;6.70;2.50;;;18.80;57.40;;;;;;6243390;28;20124;-75
2023/09/26 00:29:49;;;;;;;4.68;2.13;;;18.80;57.40;;;;;;6243165;28;20026;-75
2023/09/26 00:32:50;;;;;;;6.40;2.35;;;18.80;57.40;;;;;;6243069;28;20044;-77
2023/09/26 00:35:51;;;;;;;5.65;2.50;;;18.70;57.40;;;;;;6225091;28;20045;-76
2023/09/26 00:38:52;;;;;;;7.28;2.83;;;18.70;57.40;;;;;;6225825;28;20076;-76
2023/09/26 00:41:53;;;;;;;4.95;2.08;;;18.70;57.60;;;;;;6243227;28;20559;-75
2023/09/26 00:44:55;;;;;;;4.63;1.60;;;18.70;57.70;;;;;;6243612;28;20128;-76
2023/09/26 00:47:56;;;;;;;5.40;1.88;;;18.70;57.80;;;;;;6218889;28;20034;-77
2023/09/26 00:50:58;;;;;;;11.20;1.90;;;18.60;57.80;;;;;;6217131;28;20069;-76
2023/09/26 00:54:00;;;;;;;7.53;1.90;;;18.60;57.90;;;;;;6230578;28;20029;-75
2023/09/26 00:57:03;;;;;;;5.60;1.90;;;18.60;58.00;;;;;;6223669;28;20122;-76
2023/09/26 01:00:04;;;;;;;5.13;1.92;;;18.50;58.10;;;;;;6223764;28;20037;-75
2023/09/26 01:03:05;;;;;;;8.00;2.10;;;18.50;58.10;;;;;;6223457;28;20048;-74
2023/09/26 01:06:06;;;;;;;6.28;2.42;;;18.50;58.20;;;;;;6241332;28;20356;-76
2023/09/26 01:09:10;;;;;;;3.17;1.80;;;18.40;58.20;;;;;;6240229;28;20203;-77
2023/09/26 01:12:11;;;;;;;4.88;1.98;;;18.40;58.30;;;;;;6223355;28;20045;-76
2023/09/26 01:15:12;;;;;;;5.13;1.98;;;18.40;58.50;;;;;;6240431;28;20041;-74
2023/09/26 01:18:15;;;;;;;7.28;2.40;;;18.30;58.70;;;;;;6239630;28;20090;-75
2023/09/26 01:21:16;;;;;;;5.88;2.40;;;18.30;58.90;;;;;;6223431;28;20045;-76
2023/09/26 01:24:17;;;;;;;6.18;2.75;;;18.50;59.10;;;;;;6239420;28;20116;-76
2023/09/26 01:27:18;;;;;;;5.95;2.65;;;18.20;59.00;;;;;;6240801;28;20037;-76
2023/09/26 01:30:19;;;;;;;4.07;1.83;;;18.10;59.10;;;;;;6241416;28;20018;-76
2023/09/26 01:33:21;;;;;;;17.88;2.13;;;18.10;59.20;;;;;;6206399;28;20048;-74
2023/09/26 01:36:26;;;;;;;5.32;2.17;;;18.00;59.30;;;;;;6240712;28;20035;-75
2023/09/26 01:39:27;;;;;;;5.43;2.00;;;18.00;59.50;;;;;;6240603;28;20124;-75
2023/09/26 01:42:28;;;;;;;3.28;1.88;;;18.00;59.60;;;;;;6240560;28;20166;-76
2023/09/26 01:45:28;;;;;;;4.03;2.15;;;17.90;59.80;;;;;;6235497;28;20387;-76
2023/09/26 01:48:29;;;;;;;6.30;2.22;;;17.90;59.90;;;;;;6216922;28;20049;-76
2023/09/26 01:51:30;;;;;;;5.32;2.20;;;17.90;59.90;;;;;;6231837;28;20021;-76
2023/09/26 01:54:31;;;;;;;3.28;1.80;;;17.80;60.00;;;;;;6222818;28;20068;-76
2023/09/26 01:57:35;;;;;;;4.03;1.83;;;17.80;60.10;;;;;;6222140;28;20454;-75
2023/09/26 02:00:35;;;;;;;6.75;1.85;;;17.80;60.30;;;;;;6222862;28;20101;-77
2023/09/26 02:03:36;;;;;;;5.25;2.35;;;17.80;60.30;;;;;;6222669;28;20147;-75
2023/09/26 02:06:37;;;;;;;3.47;1.83;;;17.70;60.20;;;;;;6221873;28;20033;-75
2023/09/26 02:09:38;;;;;;;5.32;1.80;;;17.70;60.20;;;;;;6222502;28;20033;-75
2023/09/26 02:12:50;;;;;;;2.53;1.73;;;17.70;60.10;;;;;;6202104;28;20041;-74
2023/09/26 02:15:50;;;;;;;4.75;1.83;;;17.80;60.10;;;;;;6216097;28;20033;-77
2023/09/26 02:18:51;;;;;;;4.57;2.13;;;17.70;60.00;;;;;;6215097;28;20033;-75
2023/09/26 02:21:52;;;;;;;5.07;1.77;;;17.70;60.00;;;;;;6196868;28;20430;-75
2023/09/26 02:24:53;;;;;;;7.07;2.10;;;17.70;60.00;;;;;;6215121;28;20026;-75
2023/09/26 02:27:54;;;;;;;5.57;2.10;;;17.70;60.00;;;;;;6215000;28;20026;-74
2023/09/26 02:30:55;;;;;;;5.50;1.95;;;17.70;59.90;;;;;;6215768;28;20065;-77
2023/09/26 02:33:56;;;;;;;4.00;1.70;;;17.70;59.90;;;;;;6196725;28;20117;-77
2023/09/26 02:36:57;;;;;;;10.82;1.95;;;17.70;59.90;;;;;;6197338;28;20040;-75
2023/09/26 02:39:57;;;;;;;3.80;2.00;;;17.70;59.90;;;;;;6214295;28;20109;-76
2023/09/26 02:43:01;;;;;;;7.10;1.98;;;17.60;59.80;;;;;;6215134;28;20053;-76
2023/09/26 02:46:02;;;;;;;6.82;1.83;;;17.60;59.80;;;;;;6229810;28;20033;-76
2023/09/26 02:49:03;;;;;;;4.38;1.60;;;17.60;59.90;;;;;;6221151;28;20465;-77
2023/09/26 02:52:06;;;;;;;3.30;1.45;;;17.60;60.10;;;;;;6238720;28;20033;-78
2023/09/26 02:55:08;;;;;;;7.65;2.28;;;17.50;60.10;;;;;;6238840;28;20083;-76
2023/09/26 02:58:08;;;;;;;5.95;2.28;;;17.50;60.10;;;;;;6239126;28;20041;-76
2023/09/26 03:01:15;;;;;;;3.47;1.80;;;17.40;59.90;;;;;;6239514;28;20037;-75
2023/09/26 03:04:16;;;;;;;4.18;1.90;;;17.50;59.90;;;;;;6221440;28;20465;-76
2023/09/26 03:07:17;;;;;;;8.93;2.25;;;17.50;60.00;;;;;;6238349;28;20029;-76
2023/09/26 03:10:19;;;;;;;4.20;2.03;;;17.60;60.30;;;;;;6239507;28;20458;-76
2023/09/26 03:13:19;;;;;;;4.75;2.20;;;17.50;60.30;;;;;;6239307;28;20029;-77
2023/09/26 03:16:22;;;;;;;5.03;2.33;;;17.50;60.30;;;;;;6236773;28;20077;-76
2023/09/26 03:19:23;;;;;;;4.25;2.10;;;17.50;60.30;;;;;;6238812;28;20033;-77
2023/09/26 03:22:24;;;;;;;3.78;1.90;;;17.20;60.20;;;;;;6220247;28;20438;-75
2023/09/26 03:25:25;;;;;;;3.83;2.05;;;17.40;60.40;;;;;;6238240;28;20033;-77
2023/09/26 03:28:25;;;;;;;6.75;2.38;;;17.40;60.60;;;;;;6236559;28;20676;-76
2023/09/26 03:31:27;;;;;;;5.82;2.10;;;17.40;60.60;;;;;;6236089;28;20064;-75
2023/09/26 03:34:28;;;;;;;7.13;2.65;;;17.30;60.60;;;;;;6236032;28;20521;-76
2023/09/26 03:37:29;;;;;;;3.40;1.95;;;17.30;60.70;;;;;;6237701;28;20101;-75
2023/09/26 03:40:30;;;;;;;8.20;2.25;;;17.30;60.80;;;;;;6236672;28;20041;-74
2023/09/26 03:43:31;;;;;;;3.58;1.83;;;17.30;60.80;;;;;;6236210;28;20096;-75
2023/09/26 03:46:33;;;;;;;6.68;2.47;;;17.20;61.10;;;;;;6213201;28;20038;-76
2023/09/26 03:49:34;;;;;;;3.92;2.00;;;17.10;61.30;;;;;;6218783;28;20026;-75
2023/09/26 03:52:35;;;;;;;5.88;1.85;;;17.10;61.50;;;;;;6219295;28;20045;-76
2023/09/26 03:55:35;;;;;;;11.73;2.65;;;17.00;61.70;;;;;;6233255;28;20443;-74
2023/09/26 03:58:37;;;;;;;3.78;1.83;;;17.00;61.80;;;;;;6217323;28;20092;-76
2023/09/26 04:01:39;;;;;;;5.50;2.17;;;17.00;61.90;;;;;;6216550;28;20198;-74
2023/09/26 04:04:40;;;;;;;4.70;1.98;;;17.00;61.90;;;;;;6199968;28;20064;-74
2023/09/26 04:07:41;;;;;;;9.50;1.70;;;17.00;62.00;;;;;;6218017;28;20022;-76
2023/09/26 04:10:41;;;;;;;3.42;1.65;;;16.90;61.90;;;;;;6237328;28;20037;-75
2023/09/26 04:13:43;;;;;;;6.32;2.65;;;16.90;62.00;;;;;;6224897;28;20347;-77
2023/09/26 04:16:44;;;;;;;8.32;2.55;;;16.90;62.10;;;;;;6224624;28;20021;-75
2023/09/26 04:19:48;;;;;;;7.43;2.67;;;16.80;62.30;;;;;;6224565;28;20026;-76
2023/09/26 04:22:49;;;;;;;8.95;2.95;;;16.70;63.30;;;;;;6242551;28;20153;-76
2023/09/26 04:25:51;;;;;;;9.05;2.88;;;16.70;62.90;;;;;;6243060;28;20033;-76
2023/09/26 04:28:51;;;;;;;6.95;2.80;;;16.60;63.20;;;;;;6224555;28;20045;-76
2023/09/26 04:31:52;;;;;;;7.32;2.53;;;16.60;63.60;;;;;;6240404;28;20351;-76
2023/09/26 04:34:53;;;;;;;5.47;2.33;;;16.50;63.80;;;;;;6241516;28;20163;-74
2023/09/26 04:37:54;;;;;;;5.05;2.15;;;16.50;64.00;;;;;;6240233;28;20060;-75
2023/09/26 04:40:55;;;;;;;4.40;2.13;;;16.40;64.20;;;;;;6225053;28;20033;-74
2023/09/26 04:43:56;;;;;;;8.73;2.08;;;16.40;65.10;;;;;;6216303;28;20120;-75
2023/09/26 04:46:56;;;;;;;3.92;1.85;;;16.40;64.40;;;;;;6239003;28;20030;-76
2023/09/26 04:49:57;;;;;;;3.25;2.10;;;16.40;64.30;;;;;;6203628;28;20025;-75
2023/09/26 04:52:59;;;;;;;4.60;2.38;;;16.40;64.40;;;;;;6205564;28;20497;-75
2023/09/26 04:56:01;;;;;;;6.00;2.50;;;16.30;64.40;;;;;;6235768;28;20410;-74
2023/09/26 04:59:02;;;;;;;5.15;2.45;;;16.30;64.30;;;;;;6239210;28;20069;-74
2023/09/26 05:02:03;;;;;;;6.15;2.45;;;16.30;64.20;;;;;;6240649;28;20817;-75
2023/09/26 05:05:04;;;;;;;8.50;2.20;;;16.40;64.20;;;;;;6241110;28;20090;-77
2023/09/26 05:08:05;;;;;;;5.43;2.35;;;16.40;64.20;;;;;;6221584;28;20034;-75
2023/09/26 05:11:06;;;;;;;6.90;2.22;;;16.40;64.10;;;;;;6224444;28;20034;-75
2023/09/26 05:14:07;;;;;;;3.80;2.05;;;16.40;64.10;;;;;;6223002;28;20033;-74
2023/09/26 05:17:08;;;;;;;7.03;2.55;;;16.80;64.30;;;;;;6240519;28;20029;-75
2023/09/26 05:20:12;;;;;;;4.05;1.95;;;16.40;64.00;;;;;;6239953;28;20557;-75
2023/09/26 05:23:13;;;;;;;7.93;2.65;;;16.50;64.00;;;;;;6240443;28;20121;-75
2023/09/26 05:26:13;;;;;;;6.45;2.30;;;16.50;63.90;;;;;;6241021;28;20041;-76
2023/09/26 05:29:14;;;;;;;4.70;2.28;;;16.50;63.90;;;;;;6240218;28;20041;-77
2023/09/26 05:32:15;;;;;;;12.90;3.40;;;16.50;63.90;;;;;;6242183;28;20091;-77
2023/09/26 05:35:16;;;;;;;4.10;2.00;;;16.50;63.60;;;;;;6215253;28;20689;-77
2023/09/26 05:38:17;;;;;;;5.45;2.53;;;16.50;63.50;;;;;;6216321;28;20084;-76
2023/09/26 05:41:18;;;;;;;9.90;2.30;;;16.50;63.10;;;;;;6197176;28;20483;-75
2023/09/26 05:44:18;;;;;;;6.55;2.70;;;16.50;62.90;;;;;;6216898;28;20163;-75
2023/09/26 05:47:19;;;;;;;10.77;2.97;;;16.40;62.40;;;;;;6219404;28;20121;-76
2023/09/26 05:50:20;;;;;;;8.50;3.33;;;16.40;62.10;;;;;;6215022;28;20478;-74
2023/09/26 05:53:21;;;;;;;9.50;3.15;;;16.40;62.00;;;;;;6230997;28;20045;-77
2023/09/26 05:56:22;;;;;;;8.27;2.78;;;16.50;62.10;;;;;;6216163;28;20459;-77
2023/09/26 05:59:22;;;;;;;5.90;2.70;;;16.50;62.20;;;;;;6215814;28;20436;-78
2023/09/26 06:02:24;;;;;;;8.07;3.63;;;16.50;62.20;;;;;;6214922;28;20434;-75
2023/09/26 06:05:25;;;;;;;7.68;2.53;;;16.50;62.20;;;;;;6214468;28;20042;-74
2023/09/26 06:08:26;;;;;;;4.88;2.72;;;16.40;62.20;;;;;;6214485;28;20040;-75
2023/09/26 06:11:26;;;;;;;9.80;3.13;;;16.50;62.30;;;;;;6223278;28;20033;-76
2023/09/26 06:14:27;;;;;;;6.13;2.40;;;16.60;62.30;;;;;;6239905;28;20405;-76
2023/09/26 06:17:28;;;;;;;6.18;2.92;;;16.60;62.40;;;;;;6239499;28;20128;-76
2023/09/26 06:20:29;;;;;;;6.18;3.40;;;16.60;62.50;;;;;;6221334;28;20037;-76
2023/09/26 06:23:32;;;;;;;4.45;2.33;;;16.50;62.60;;;;;;6221337;28;20040;-74
2023/09/26 06:26:32;;;;;;;7.75;4.28;;;16.60;62.80;;;;;;6239355;28;20033;-75
2023/09/26 06:29:40;;;;;;;12.43;3.53;;;16.50;62.90;;;;;;6239346;28;20164;-78
2023/09/26 06:32:41;;;;;;;10.00;2.90;;;16.60;63.30;;;;;;6230800;28;20029;-76
2023/09/26 06:35:42;;;;;;;5.25;3.25;;;16.50;63.40;;;;;;6239452;28;20457;-77
2023/09/26 06:38:43;;;;;;;9.10;2.88;;;16.50;63.50;;;;;;6237109;28;20516;-75
2023/09/26 06:41:44;;;;;;;8.70;3.67;;;16.60;63.80;;;;;;6221358;28;20112;-75
2023/09/26 06:44:44;;;;;;;12.57;3.45;;;16.60;63.70;;;;;;6239422;28;20030;-77
2023/09/26 06:47:47;;;;;;;5.95;2.60;;;16.60;63.60;;;;;;6214507;28;20038;-76
2023/09/26 06:50:48;;;;;;;5.22;2.40;;;16.70;63.50;;;;;;6214192;28;20132;-76
2023/09/26 06:53:49;;;;;;;4.32;1.73;;;16.80;63.30;;;;;;6213979;28;20084;-75
2023/09/26 06:56:51;;;;;;;6.45;2.45;;;16.80;63.10;;;;;;6212218;28;20196;-75
2023/09/26 06:59:52;;;;;;;12.15;3.30;;;16.90;62.90;;;;;;6211926;28;20030;-76
2023/09/26 07:02:53;;;;;;;10.10;3.08;;;17.00;62.80;;;;;;6235812;28;20062;-76
2023/09/26 07:05:55;;;;;;;6.60;2.60;;;17.00;62.60;;;;;;6237769;28;20037;-77
2023/09/26 07:08:57;;;;;;;6.68;3.03;;;17.10;62.40;;;;;;6220593;28;20049;-75
2023/09/26 07:11:59;;;;;;;7.85;2.65;;;17.10;62.20;;;;;;6219612;28;20037;-75
2023/09/26 07:15:00;;;;;;;7.13;2.60;;;17.20;62.10;;;;;;6236798;28;20064;-76
2023/09/26 07:18:06;;;;;;;6.90;2.72;;;17.30;62.00;;;;;;6236429;28;20048;-74
2023/09/26 07:21:07;;;;;;;11.43;2.35;;;17.40;61.90;;;;;;6236299;28;20040;-75
2023/09/26 07:24:09;;;;;;;7.43;2.92;;;17.50;61.70;;;;;;6220155;28;20033;-76
2023/09/26 07:27:10;;;;;;;5.90;2.58;;;17.60;61.40;;;;;;6219607;28;20347;-76
2023/09/26 07:30:11;;;;;;;11.40;2.95;;;17.60;60.80;;;;;;6238424;28;20109;-76
2023/09/26 07:33:12;;;;;;;8.55;3.10;;;17.70;60.80;;;;;;6219931;28;20037;-76
2023/09/26 07:36:13;;;;;;;5.20;2.85;;;17.80;60.60;;;;;;6235861;28;20164;-75
2023/09/26 07:39:15;;;;;;;10.20;3.53;;;17.90;60.30;;;;;;6237426;28;20033;-75
2023/09/26 07:42:15;;;;;;;4.65;2.33;;;18.10;60.20;;;;;;6237795;28;20121;-75
2023/09/26 07:45:16;;;;;;;4.60;2.53;;;18.00;60.10;;;;;;6227982;28;20033;-74
2023/09/26 07:48:17;;;;;;;6.18;2.92;;;18.20;59.80;;;;;;6212989;28;20091;-76
2023/09/26 07:51:18;;;;;;;5.70;2.05;;;18.20;59.40;;;;;;6212572;28;20085;-76
2023/09/26 07:54:19;;;;;;;7.28;2.80;;;18.30;59.20;;;;;;6212529;28;20469;-77
2023/09/26 07:57:20;;;;;;;4.13;2.38;;;18.40;59.00;;;;;;6219604;28;20100;-76
2023/09/26 08:00:22;;;;;;;3.97;1.95;;;18.50;58.60;;;;;;6236197;28;20091;-75
2023/09/26 08:03:23;;;;;;;8.25;2.47;;;18.60;58.50;;;;;;6235159;28;20556;-79
2023/09/26 08:06:24;;;;;;;5.43;2.78;;;18.70;58.40;;;;;;6218413;28;20530;-75
2023/09/26 08:09:24;;;;;;;9.57;2.90;;;18.90;58.00;;;;;;6236799;28;20117;-77
2023/09/26 08:12:25;;;;;;;8.65;3.13;;;19.00;57.70;;;;;;6218358;28;20026;-77
2023/09/26 08:15:30;;;;;;;9.45;3.45;;;19.10;57.20;;;;;;6237222;28;20350;-76
2023/09/26 08:18:31;;;;;;;12.50;3.97;;;19.20;56.90;;;;;;6236945;28;20138;-76
2023/09/26 08:21:32;;;;;;;13.00;4.07;;;19.30;56.80;;;;;;6219465;28;20253;-76
2023/09/26 08:24:33;;;;;;;13.73;3.70;;;19.40;56.50;;;;;;6237102;28;20038;-77
2023/09/26 08:27:35;;;;;;;6.35;2.83;;;19.60;56.30;;;;;;6218352;28;20139;-75
2023/09/26 08:30:36;;;;;;;10.00;2.80;;;19.80;56.20;;;;;;6235024;28;20041;-76
2023/09/26 08:33:37;;;;;;;9.05;2.63;;;19.90;55.80;;;;;;6239116;28;20045;-76
2023/09/26 08:36:38;;;;;;;10.02;3.45;;;20.00;55.70;;;;;;6223046;28;20043;-76
2023/09/26 08:39:39;;;;;;;7.30;2.42;;;20.10;55.40;;;;;;6241062;28;20029;-75
2023/09/26 08:42:45;;;;;;;8.02;3.42;;;20.20;55.20;;;;;;6239824;28;20605;-75
2023/09/26 08:45:46;;;;;;;12.20;2.75;;;20.30;54.80;;;;;;6234213;28;20030;-75
2023/09/26 08:48:48;;;;;;;7.43;2.60;;;20.30;54.40;;;;;;6214792;28;20802;-77
2023/09/26 08:51:49;;;;;;;4.28;2.65;;;20.40;54.40;;;;;;6216213;28;20026;-77
2023/09/26 08:54:50;;;;;;;11.00;3.40;;;20.50;53.80;;;;;;6206424;28;20710;-75
2023/09/26 08:57:52;;;;;;;6.50;2.88;;;20.70;53.30;;;;;;6240973;28;20348;-75
2023/09/26 09:00:54;;;;;;;9.57;2.60;;;20.80;53.20;;;;;;6240590;28;20029;-76
2023/09/26 09:03:55;;;;;;;10.35;2.58;;;20.90;52.70;;;;;;6222673;28;20021;-74
2023/09/26 09:07:02;;;;;;;16.00;3.28;;;21.00;52.50;;;;;;6240204;28;20536;-75
2023/09/26 09:10:10;;;;;;;13.07;3.90;;;21.10;51.90;;;;;;6240505;28;20397;-77
2023/09/26 09:13:11;;;;;;;10.40;2.45;;;21.20;51.80;;;;;;6215930;28;20034;-76
2023/09/26 09:16:18;;;;;;;10.23;2.92;;;21.30;51.60;;;;;;6216213;28;20068;-77
2023/09/26 09:19:19;;;;;;;5.22;2.35;;;21.50;51.30;;;;;;6203970;28;20038;-76
2023/09/26 09:22:22;;;;;;;6.10;2.08;;;21.70;50.80;;;;;;6230712;28;20022;-76
2023/09/26 09:25:34;;;;;;;5.63;2.58;;;21.60;50.00;;;;;;6240289;28;20084;-75
2023/09/26 09:28:35;;;;;;;13.38;2.88;;;21.70;50.40;;;;;;6239486;28;20084;-77
2023/09/26 09:31:36;;;;;;;9.88;2.30;;;21.70;49.30;;;;;;6240928;28;20045;-76
2023/09/26 09:34:37;;;;;;;6.55;2.83;;;21.80;48.70;;;;;;6222707;28;20034;-75
2023/09/26 09:37:38;;;;;;;7.68;3.35;;;21.80;48.90;;;;;;6222662;28;20041;-76
2023/09/26 09:40:39;;;;;;;7.93;3.60;;;21.90;48.70;;;;;;6240972;28;20147;-76
2023/09/26 09:43:40;;;;;;;6.57;3.00;;;22.00;48.50;;;;;;6240258;28;20052;-75
2023/09/26 09:46:43;;;;;;;8.73;2.65;;;22.00;48.20;;;;;;6238316;28;20025;-76
2023/09/26 09:49:47;;;;;;;11.93;3.88;;;22.20;48.00;;;;;;6233693;28;20517;-75
2023/09/26 09:52:51;;;;;;;6.93;3.03;;;22.30;47.70;;;;;;6216024;28;20104;-77
2023/09/26 09:55:52;;;;;;;10.27;3.20;;;22.30;47.80;;;;;;6197616;28;20077;-78
2023/09/26 09:59:05;;;;;;;8.82;2.92;;;22.40;47.50;;;;;;6214015;28;20040;-75
2023/09/26 10:02:07;;;;;;;9.80;4.35;;;22.40;47.30;;;;;;6215570;28;20584;-77
2023/09/26 10:05:12;;;;;;;8.02;2.30;;;22.50;47.50;;;;;;6215364;28;20553;-76
2023/09/26 10:08:13;;;;;;;10.77;3.33;;;22.60;47.00;;;;;;6213415;28;20091;-76
2023/09/26 10:11:16;;;;;;;12.13;3.88;;;22.70;46.90;;;;;;6206065;28;20419;-78
2023/09/26 10:14:25;;;;;;;7.30;2.83;;;22.70;46.90;;;;;;6238127;28;20087;-75
2023/09/26 10:17:26;;;;;;;19.42;5.30;;;22.90;46.90;;;;;;6238821;28;20037;-75
2023/09/26 10:20:28;;;;;;;19.13;6.95;;;23.00;46.60;;;;;;6236854;28;20056;-76
2023/09/26 10:23:29;;;;;;;10.30;3.80;;;23.10;46.50;;;;;;6237343;28;20040;-78
2023/09/26 10:26:30;;;;;;;7.07;3.50;;;23.30;46.40;;;;;;6238983;28;20557;-75
2023/09/26 10:29:31;;;;;;;12.93;3.55;;;23.60;45.90;;;;;;6239101;28;20071;-75
2023/09/26 10:32:33;;;;;;;12.30;3.25;;;23.90;45.60;;;;;;6239186;28;20025;-79
2023/09/26 10:35:42;;;;;;;10.40;4.18;;;24.30;45.10;;;;;;6238407;28;20063;-77
2023/09/26 10:38:56;;;;;;;7.18;2.90;;;24.70;44.50;;;;;;6236470;28;20037;-78
2023/09/26 10:42:01;;;;;;;10.35;3.90;;;25.10;44.00;;;;;;6238390;28;20095;-78
2023/09/26 10:45:02;;;;;;;4.97;2.45;;;25.50;43.20;;;;;;6213956;28;20116;-78
2023/09/26 10:48:07;;;;;;;6.13;2.75;;;25.70;42.50;;;;;;6220002;28;20033;-77
2023/09/26 10:51:07;;;;;;;9.35;3.30;;;25.90;41.70;;;;;;6238286;28;20037;-78
2023/09/26 10:54:08;;;;;;;10.65;3.67;;;26.10;41.60;;;;;;6236369;28;20211;-78
2023/09/26 10:57:20;;;;;;;5.85;2.72;;;26.30;41.50;;;;;;6237807;28;20037;-76
2023/09/26 11:00:21;;;;;;;8.25;3.58;;;26.60;41.40;;;;;;6237663;28;20410;-76
2023/09/26 11:03:22;;;;;;;19.33;5.60;;;26.90;41.00;;;;;;6236429;28;20037;-76
2023/09/26 11:06:23;;;;;;;10.25;3.75;;;27.20;40.30;;;;;;6236111;28;20118;-77
2023/09/26 11:09:25;;;;;;;16.65;5.65;;;27.30;39.30;;;;;;6236054;28;20049;-77
2023/09/26 11:12:26;;;;;;;7.00;2.83;;;27.50;39.20;;;;;;6235254;28;20076;-77
2023/09/26 11:15:27;;;;;;;6.60;2.75;;;27.70;38.60;;;;;;6218919;28;20124;-77
2023/09/26 11:18:28;;;;;;;10.00;2.60;;;28.00;38.70;;;;;;6235554;28;20099;-76
2023/09/26 11:21:29;;;;;;;8.60;2.45;;;28.40;37.50;;;;;;6217922;28;20111;-77
2023/09/26 11:24:31;;;;;;;6.57;2.40;;;28.70;36.70;;;;;;6218488;28;20049;-78
2023/09/26 11:27:36;;;;;;;7.38;3.47;;;29.10;35.50;;;;;;6237180;28;20690;-78
2023/09/26 11:30:38;;;;;;;8.30;2.90;;;29.50;35.20;;;;;;6219510;28;20046;-78
2023/09/26 11:33:41;;;;;;;7.85;3.17;;;29.90;35.10;;;;;;6202465;28;20124;-76
2023/09/26 11:36:42;;;;;;;7.80;3.00;;;30.30;34.70;;;;;;6236993;28;20029;-78
2023/09/26 11:39:50;;;;;;;7.13;2.47;;;30.60;34.30;;;;;;6236709;28;20454;-78
2023/09/26 11:42:55;;;;;;;5.47;2.40;;;31.20;33.80;;;;;;6225116;28;20034;-77
2023/09/26 11:46:03;;;;;;;8.32;2.70;;;31.60;33.20;;;;;;6201829;28;20431;-78
2023/09/26 11:49:04;;;;;;;6.95;2.90;;;32.10;32.50;;;;;;6212127;28;20030;-77
2023/09/26 11:52:05;;;;;;;6.00;2.88;;;32.50;31.70;;;;;;6211341;28;20343;-77
2023/09/26 11:55:06;;;;;;;13.90;2.78;;;32.90;31.00;;;;;;6195090;28;20049;-77
2023/09/26 11:58:07;;;;;;;8.73;3.50;;;33.30;30.80;;;;;;6212527;28;20026;-78
2023/09/26 12:01:08;;;;;;;5.43;2.70;;;33.80;30.10;;;;;;6211353;28;20123;-78
2023/09/26 12:04:16;;;;;;;7.07;2.78;;;34.40;29.40;;;;;;6212909;28;20382;-80
2023/09/26 12:07:17;;;;;;;6.07;2.70;;;34.80;28.40;;;;;;6213444;28;20049;-78
2023/09/26 12:10:18;;;;;;;9.85;3.72;;;35.00;28.40;;;;;;6232668;28;20034;-77
2023/09/26 12:13:19;;;;;;;6.15;2.55;;;35.50;27.80;;;;;;6223993;28;20063;-76
2023/09/26 12:16:20;;;;;;;9.02;3.63;;;35.90;27.30;;;;;;6240408;28;20072;-78
2023/09/26 12:19:22;;;;;;;5.22;2.60;;;36.30;26.90;;;;;;6242199;28;20037;-76
2023/09/26 12:22:23;;;;;;;5.35;2.45;;;36.70;26.50;;;;;;6241738;28;20064;-78
2023/09/26 12:25:27;;;;;;;9.02;3.22;;;37.00;26.10;;;;;;6242029;28;20029;-76
2023/09/26 12:28:28;;;;;;;5.15;2.47;;;37.20;25.80;;;;;;6223839;28;20136;-78
2023/09/26 12:31:29;;;;;;;6.68;3.20;;;37.60;25.70;;;;;;6241633;28;20048;-76
2023/09/26 12:34:30;;;;;;;5.72;2.53;;;38.10;25.40;;;;;;6240368;28;20021;-77
2023/09/26 12:37:33;;;;;;;7.25;1.95;;;38.70;24.80;;;;;;6240175;28;20022;-76
2023/09/26 12:40:34;;;;;;;4.75;2.85;;;39.10;24.30;;;;;;6241871;28;20061;-77
2023/09/26 12:43:35;;;;;;;7.65;2.47;;;39.50;23.90;;;;;;6242083;28;20428;-77
2023/09/26 12:46:36;;;;;;;21.33;2.90;;;39.90;23.50;;;;;;6228421;28;20026;-77
2023/09/26 12:49:38;;;;;;;13.60;3.10;;;40.00;23.10;;;;;;6215768;28;20141;-77
2023/09/26 12:52:40;;;;;;;6.57;2.58;;;39.50;23.20;;;;;;6215559;28;20486;-76
2023/09/26 12:55:41;;;;;;;6.22;3.08;;;38.50;23.80;;;;;;6217219;28;20162;-75
2023/09/26 12:58:41;;;;;;;6.90;2.95;;;37.40;24.50;;;;;;6216870;28;20030;-77
2023/09/26 13:01:44;;;;;;;6.70;2.70;;;36.50;25.20;;;;;;6216873;28;20026;-77
2023/09/26 13:04:45;;;;;;;5.07;2.67;;;35.60;25.70;;;;;;6238090;28;20086;-76
2023/09/26 13:07:46;;;;;;;7.82;2.70;;;34.90;26.70;;;;;;6232877;28;20029;-76
2023/09/26 13:10:47;;;;;;;7.45;2.75;;;34.30;26.80;;;;;;6233775;28;20122;-76
2023/09/26 13:13:48;;;;;;;9.48;2.72;;;34.00;27.00;;;;;;6216465;28;20621;-77
2023/09/26 13:16:48;;;;;;;4.10;2.30;;;33.70;27.20;;;;;;6215981;28;20064;-78
2023/09/26 13:19:49;;;;;;;3.90;1.98;;;33.30;27.60;;;;;;6215696;28;20033;-75
2023/09/26 13:22:53;;;;;;;8.32;2.67;;;32.90;27.90;;;;;;6216280;28;20029;-77
2023/09/26 13:25:55;;;;;;;7.82;2.28;;;32.50;28.30;;;;;;6197964;28;20557;-77
2023/09/26 13:28:55;;;;;;;7.53;2.65;;;32.10;28.80;;;;;;6197250;28;20065;-77
2023/09/26 13:31:56;;;;;;;8.07;2.58;;;31.70;29.40;;;;;;6213722;28;20139;-77
2023/09/26 13:34:57;;;;;;;5.60;2.10;;;31.30;29.80;;;;;;6197453;28;20084;-75
2023/09/26 13:37:58;;;;;;;10.20;2.60;;;31.00;30.10;;;;;;6214993;28;20457;-75
2023/09/26 13:41:00;;;;;;;5.47;2.78;;;30.70;30.60;;;;;;6214744;28;20125;-77
2023/09/26 13:44:01;;;;;;;8.32;2.92;;;30.40;31.00;;;;;;6215100;28;20061;-78
2023/09/26 13:47:02;;;;;;;9.35;3.05;;;30.10;31.40;;;;;;6231984;28;20072;-76
2023/09/26 13:50:03;;;;;;;5.00;2.60;;;29.90;31.90;;;;;;6239406;28;20041;-75
2023/09/26 13:53:04;;;;;;;5.28;2.65;;;29.60;32.20;;;;;;6239416;28;20132;-76
2023/09/26 13:56:05;;;;;;;9.10;2.55;;;29.40;32.60;;;;;;6237229;28;20119;-78
2023/09/26 13:59:06;;;;;;;5.30;2.33;;;29.20;32.90;;;;;;6221386;28;20065;-76
2023/09/26 14:02:07;;;;;;;6.47;2.38;;;29.00;33.30;;;;;;6220339;28;20073;-77
2023/09/26 14:05:08;;;;;;;5.72;2.50;;;28.80;33.50;;;;;;6213099;28;20034;-76
2023/09/26 14:08:08;;;;;;;10.65;2.63;;;28.70;33.80;;;;;;6215081;28;20183;-75
2023/09/26 14:11:13;;;;;;;6.57;2.42;;;28.70;34.10;;;;;;6221272;28;20037;-77
2023/09/26 14:14:17;;;;;;;5.57;2.28;;;28.50;34.30;;;;;;6228463;28;20026;-76
2023/09/26 14:17:17;;;;;;;7.35;2.65;;;28.50;34.50;;;;;;6213944;28;20125;-76
2023/09/26 14:20:18;;;;;;;4.82;1.98;;;28.50;34.60;;;;;;6198794;28;20048;-75
2023/09/26 14:23:24;;;;;;;3.90;2.00;;;28.40;34.70;;;;;;6215674;28;20354;-76
2023/09/26 14:26:25;;;;;;;4.45;2.15;;;28.30;34.90;;;;;;6214735;28;20061;-75
2023/09/26 14:29:31;;;;;;;12.57;2.50;;;28.30;35.10;;;;;;6226663;28;20038;-76
2023/09/26 14:32:32;;;;;;;8.25;2.63;;;28.20;35.20;;;;;;6229591;28;20125;-77
2023/09/26 14:35:33;;;;;;;4.57;1.95;;;28.20;35.30;;;;;;6239060;28;20543;-75
2023/09/26 14:38:34;;;;;;;7.03;2.53;;;28.20;35.40;;;;;;6222941;28;20038;-77
2023/09/26 14:41:35;;;;;;;4.70;2.13;;;28.10;35.30;;;;;;6234799;28;20087;-76
2023/09/26 14:44:36;;;;;;;4.47;2.20;;;28.10;35.40;;;;;;6227855;28;20120;-76
2023/09/26 14:47:36;;;;;;;8.63;2.45;;;28.10;35.50;;;;;;6222368;28;20056;-77
2023/09/26 14:50:37;;;;;;;8.45;2.38;;;28.10;35.50;;;;;;6214638;28;20111;-76
2023/09/26 14:53:38;;;;;;;4.78;2.08;;;28.00;35.50;;;;;;6204398;28;20784;-77
2023/09/26 14:56:41;;;;;;;6.25;2.38;;;28.10;35.50;;;;;;6231228;28;20457;-78
2023/09/26 14:59:42;;;;;;;3.40;1.80;;;28.00;35.30;;;;;;6227863;28;20149;-78
2023/09/26 15:02:43;;;;;;;6.35;1.73;;;28.00;35.10;;;;;;6196558;28;20504;-79
2023/09/26 15:05:44;;;;;;;13.63;1.55;;;28.00;34.70;;;;;;6212430;28;20030;-77
2023/09/26 15:08:47;;;;;;;3.38;1.52;;;28.00;34.20;;;;;;6226317;28;20820;-75
2023/09/26 15:11:48;;;;;;;4.20;1.65;;;28.10;34.00;;;;;;6201039;28;20030;-76
2023/09/26 15:14:49;;;;;;;6.35;1.63;;;28.10;34.00;;;;;;6212596;28;20482;-77
2023/09/26 15:17:50;;;;;;;6.82;1.88;;;28.10;33.80;;;;;;6179417;28;20033;-78
2023/09/26 15:20:51;;;;;;;4.35;1.40;;;28.10;33.80;;;;;;6196042;28;20525;-75
2023/09/26 15:23:52;;;;;;;3.65;1.90;;;28.10;33.60;;;;;;6213971;28;20108;-76
2023/09/26 15:26:55;;;;;;;5.53;2.25;;;28.20;33.30;;;;;;6213790;28;20058;-78
2023/09/26 15:29:56;;;;;;;7.60;2.63;;;28.20;33.60;;;;;;6197318;28;20038;-75
2023/09/26 15:32:57;;;;;;;4.60;2.17;;;28.20;33.90;;;;;;6212437;28;20802;-75
2023/09/26 15:35:57;;;;;;;12.93;3.70;;;28.20;34.30;;;;;;6213003;28;20116;-76
2023/09/26 15:38:58;;;;;;;6.47;3.03;;;28.20;34.60;;;;;;6214175;28;20045;-76
2023/09/26 15:42:00;;;;;;;6.72;2.72;;;28.20;34.80;;;;;;6213079;28;20077;-76
2023/09/26 15:45:03;;;;;;;6.75;2.80;;;28.10;34.90;;;;;;6208091;28;20056;-76